LPFL/FLW METAR and TAF weather

Enter ICAO airport designator
Station Type Date Time Source
LPFL METAR 2022/08/12 15:00 UTC NOAA

LPFL 121500Z 17009KT 140V200 9999 FEW019 27/22 Q1021


Station Type Date Time Source
LPFL Decoded METAR 2022/08/12 15:00 UTC NOAA

Flores Acores , Portugal (LPFL) 39-27N 031-08W 29M
Aug 12, 2022 - 11:00 AM EDT / 2022.08.12 1500 UTC
Wind: from the S (170 degrees) at 10 MPH (9 KT) (direction variable):0
Visibility: greater than 7 mile(s):0
Sky conditions: mostly clear
Temperature: 80 F (27 C)
Dew Point: 71 F (22 C)
Relative Humidity: 74%
Pressure (altimeter): 30.15 in. Hg (1021 hPa)
ob: LPFL 121500Z 17009KT 140V200 9999 FEW019 27/22 Q1021
cycle: 15

Station Type Date Time Source
LPFL TAF UTC NOAA

Error!

Example: see airport list